createdAt,value
2023-05-11T00:00:54.382Z,0.00
2023-05-11T00:01:54.402Z,0.00
2023-05-11T00:02:54.548Z,0.00
2023-05-11T00:03:54.504Z,0.00
2023-05-11T00:04:54.456Z,0.00
2023-05-11T00:05:54.476Z,0.00
2023-05-11T00:06:54.487Z,0.00
2023-05-11T00:07:54.509Z,0.00
2023-05-11T00:08:54.525Z,0.00
2023-05-11T00:09:54.544Z,0.00
2023-05-11T00:10:54.564Z,0.00
2023-05-11T00:11:54.570Z,0.00
2023-05-11T00:12:54.596Z,0.00
2023-05-11T00:13:54.613Z,0.00
2023-05-11T00:14:54.629Z,0.00
2023-05-11T00:15:54.684Z,0.00
2023-05-11T00:16:54.665Z,0.00
2023-05-11T00:17:54.734Z,0.00
2023-05-11T00:18:54.766Z,0.00
2023-05-11T00:19:54.715Z,0.00
2023-05-11T00:20:54.741Z,0.00
2023-05-11T00:21:54.758Z,0.00
2023-05-11T00:22:54.770Z,0.00
2023-05-11T00:23:54.787Z,0.00
2023-05-11T00:24:54.805Z,0.00
2023-05-11T00:25:54.827Z,0.00
2023-05-11T00:26:54.840Z,0.00
2023-05-11T00:27:54.859Z,0.00
2023-05-11T00:28:54.877Z,0.00
2023-05-11T00:29:54.892Z,0.00
2023-05-11T00:30:54.993Z,0.00
2023-05-11T00:31:54.997Z,0.00
2023-05-11T00:32:54.979Z,0.00
2023-05-11T00:33:54.958Z,0.00
2023-05-11T00:34:54.973Z,0.00
2023-05-11T00:35:54.990Z,0.00
2023-05-11T00:36:55.026Z,0.00
2023-05-11T00:37:55.030Z,0.00
2023-05-11T00:38:55.045Z,0.00
2023-05-11T00:39:55.060Z,0.00
2023-05-11T00:40:55.078Z,0.00
2023-05-11T00:41:55.094Z,0.00
2023-05-11T00:42:55.112Z,0.00
2023-05-11T00:43:55.129Z,0.00
2023-05-11T00:44:55.149Z,0.00
2023-05-11T00:45:55.164Z,0.00
2023-05-11T00:46:55.232Z,0.00
2023-05-11T00:47:55.267Z,0.00
2023-05-11T00:48:55.210Z,0.00
2023-05-11T00:49:55.236Z,0.00
2023-05-11T00:50:55.254Z,0.00
2023-05-11T00:51:55.283Z,0.00
2023-05-11T00:52:55.283Z,0.00
2023-05-11T00:53:55.302Z,0.00
2023-05-11T00:54:55.329Z,0.00
2023-05-11T00:55:55.341Z,0.00
2023-05-11T00:56:55.351Z,0.00
2023-05-11T00:57:55.369Z,0.00
2023-05-11T00:58:55.387Z,0.00
2023-05-11T00:59:55.408Z,0.00
2023-05-11T01:00:55.451Z,0.00
2023-05-11T01:01:55.480Z,0.00
2023-05-11T01:02:55.556Z,0.00
2023-05-11T01:03:55.473Z,0.00
2023-05-11T01:04:55.493Z,0.00
2023-05-11T01:05:55.507Z,0.00
2023-05-11T01:06:55.530Z,0.00
2023-05-11T01:07:55.539Z,0.00
2023-05-11T01:08:55.557Z,0.00
2023-05-11T01:09:55.575Z,0.00
2023-05-11T01:10:55.593Z,0.00
2023-05-11T01:11:55.608Z,0.00
2023-05-11T01:12:55.627Z,0.00
2023-05-11T01:13:55.645Z,0.00
2023-05-11T01:14:55.661Z,0.00
2023-05-11T01:15:55.676Z,0.00
2023-05-11T01:16:55.720Z,0.00
2023-05-11T01:17:55.754Z,0.00
2023-05-11T01:18:55.782Z,0.00
2023-05-11T01:19:55.744Z,0.00
2023-05-11T01:20:55.762Z,0.00
2023-05-11T01:21:55.778Z,0.00
2023-05-11T01:22:55.796Z,0.00
2023-05-11T01:23:55.814Z,0.00
2023-05-11T01:24:55.856Z,0.00
2023-05-11T01:25:55.843Z,0.00
2023-05-11T01:26:55.876Z,0.00
2023-05-11T01:27:55.878Z,0.00
2023-05-11T01:28:55.895Z,0.00
2023-05-11T01:29:55.917Z,0.00
2023-05-11T01:30:55.930Z,0.00
2023-05-11T01:31:55.965Z,0.00
2023-05-11T01:32:56.124Z,0.00
2023-05-11T01:33:55.981Z,0.00
2023-05-11T01:34:55.997Z,0.00
2023-05-11T01:35:56.011Z,0.00
2023-05-11T01:36:56.033Z,0.00
2023-05-11T01:37:56.048Z,0.00
2023-05-11T01:38:56.061Z,0.00
2023-05-11T01:39:56.078Z,0.00
2023-05-11T01:40:56.101Z,0.00
2023-05-11T01:41:56.114Z,0.00
2023-05-11T01:42:56.123Z,0.00
2023-05-11T01:43:56.141Z,0.00
2023-05-11T01:44:56.163Z,0.00
2023-05-11T01:45:56.190Z,0.00
2023-05-11T01:46:56.191Z,0.00
2023-05-11T01:47:56.245Z,0.00
2023-05-11T01:48:56.239Z,0.00
2023-05-11T01:49:56.240Z,0.00
2023-05-11T01:50:56.259Z,0.00
2023-05-11T01:51:56.270Z,0.00
2023-05-11T01:52:56.291Z,0.00
2023-05-11T01:53:56.306Z,0.00
2023-05-11T01:54:56.343Z,0.00
2023-05-11T01:55:56.342Z,0.00
2023-05-11T01:56:56.357Z,0.00
2023-05-11T01:57:56.379Z,0.00
2023-05-11T01:58:56.394Z,0.00
2023-05-11T01:59:56.409Z,0.00
2023-05-11T02:00:56.433Z,0.00
2023-05-11T02:01:56.500Z,0.00
2023-05-11T02:02:56.559Z,0.00
2023-05-11T02:03:56.471Z,0.00
2023-05-11T02:04:56.483Z,0.00
2023-05-11T02:05:56.501Z,0.00
2023-05-11T02:06:56.528Z,0.00
2023-05-11T02:07:56.537Z,0.00
2023-05-11T02:08:56.550Z,0.00
2023-05-11T02:09:56.569Z,0.00
2023-05-11T02:10:56.587Z,0.00
2023-05-11T02:11:56.602Z,0.00
2023-05-11T02:12:56.625Z,0.00
2023-05-11T02:13:56.635Z,0.00
2023-05-11T02:14:56.652Z,0.00
2023-05-11T02:15:56.682Z,0.00
2023-05-11T02:16:56.687Z,0.00
2023-05-11T02:17:56.721Z,0.00
2023-05-11T02:18:56.743Z,0.00
2023-05-11T02:19:56.730Z,0.00
2023-05-11T02:20:56.748Z,0.00
2023-05-11T02:21:56.768Z,0.00
2023-05-11T02:22:56.783Z,0.00
2023-05-11T02:23:56.798Z,0.00
2023-05-11T02:24:56.811Z,0.00
2023-05-11T02:25:56.835Z,0.00
2023-05-11T02:26:56.847Z,0.00
2023-05-11T02:27:56.862Z,0.00
2023-05-11T02:28:56.874Z,0.00
2023-05-11T02:29:56.893Z,0.00
2023-05-11T02:30:56.980Z,0.00
2023-05-11T02:31:56.930Z,0.00
2023-05-11T02:32:56.962Z,0.00
2023-05-11T02:33:56.958Z,0.00
2023-05-11T02:34:56.976Z,0.00
2023-05-11T02:35:57.007Z,0.00
2023-05-11T02:36:57.014Z,0.00
2023-05-11T02:37:57.117Z,4.00
2023-05-11T02:38:57.040Z,4.00
2023-05-11T02:39:57.060Z,0.00
2023-05-11T02:40:57.070Z,0.00
2023-05-11T02:41:57.085Z,4.00
2023-05-11T02:42:57.104Z,4.00
2023-05-11T02:43:57.118Z,4.00
2023-05-11T02:44:57.137Z,4.00
2023-05-11T02:45:57.150Z,8.00
2023-05-11T02:46:57.229Z,4.00
2023-05-11T02:47:57.224Z,4.00
2023-05-11T02:48:57.208Z,8.00
2023-05-11T02:49:57.225Z,8.00
2023-05-11T02:50:57.248Z,12.00
2023-05-11T02:51:57.255Z,12.00
2023-05-11T02:52:57.277Z,16.00
2023-05-11T02:53:57.281Z,16.00
2023-05-11T02:54:57.297Z,16.00
2023-05-11T02:55:57.316Z,20.00
2023-05-11T02:56:57.336Z,20.00
2023-05-11T02:57:57.381Z,28.00
2023-05-11T02:58:57.360Z,32.00
2023-05-11T02:59:57.384Z,32.00
2023-05-11T03:00:57.505Z,40.00
2023-05-11T03:01:57.493Z,44.00
2023-05-11T03:02:57.561Z,52.00
2023-05-11T03:03:57.490Z,56.00
2023-05-11T03:04:57.458Z,64.00
2023-05-11T03:05:57.472Z,72.00
2023-05-11T03:06:57.493Z,84.00
2023-05-11T03:07:57.505Z,96.00
2023-05-11T03:08:57.518Z,104.00
2023-05-11T03:09:57.538Z,116.00
2023-05-11T03:10:57.562Z,132.00
2023-05-11T03:11:57.581Z,144.00
2023-05-11T03:12:57.585Z,160.00
2023-05-11T03:13:57.599Z,176.00
2023-05-11T03:14:57.625Z,192.00
2023-05-11T03:15:57.638Z,204.00
2023-05-11T03:16:57.668Z,224.00
2023-05-11T03:17:57.705Z,244.00
2023-05-11T03:18:57.713Z,264.00
2023-05-11T03:19:57.695Z,284.00
2023-05-11T03:20:57.713Z,304.00
2023-05-11T03:21:57.734Z,328.00
2023-05-11T03:22:57.748Z,356.00
2023-05-11T03:23:57.760Z,380.00
2023-05-11T03:24:57.777Z,404.00
2023-05-11T03:25:57.796Z,432.00
2023-05-11T03:26:57.838Z,456.00
2023-05-11T03:27:57.825Z,488.00
2023-05-11T03:28:57.842Z,516.00
2023-05-11T03:29:57.858Z,544.00
2023-05-11T03:30:57.875Z,580.00
2023-05-11T03:31:57.901Z,612.00
2023-05-11T03:32:57.916Z,644.00
2023-05-11T03:33:57.926Z,676.00
2023-05-11T03:34:57.938Z,716.00
2023-05-11T03:35:57.966Z,756.00
2023-05-11T03:36:57.970Z,796.00
2023-05-11T03:37:57.983Z,832.00
2023-05-11T03:38:58.017Z,876.00
2023-05-11T03:39:58.023Z,912.00
2023-05-11T03:40:58.033Z,952.00
2023-05-11T03:41:58.051Z,988.00
2023-05-11T03:42:58.063Z,1028.00
2023-05-11T03:43:58.086Z,1068.00
2023-05-11T03:44:58.103Z,1104.00
2023-05-11T03:45:58.158Z,1144.00
2023-05-11T03:46:58.131Z,1184.00
2023-05-11T03:47:58.213Z,1220.00
2023-05-11T03:48:58.162Z,1252.00
2023-05-11T03:49:58.189Z,1296.00
2023-05-11T03:50:58.194Z,1336.00
2023-05-11T03:51:58.224Z,1392.00
2023-05-11T03:52:58.223Z,1444.00
2023-05-11T03:53:58.239Z,1496.00
2023-05-11T03:54:58.267Z,1544.00
2023-05-11T03:55:58.266Z,1592.00
2023-05-11T03:56:58.288Z,1632.00
2023-05-11T03:57:58.301Z,1680.00
2023-05-11T03:58:58.317Z,1724.00
2023-05-11T03:59:58.338Z,1772.00
2023-05-11T04:00:58.351Z,1816.00
2023-05-11T04:01:58.365Z,1860.00
2023-05-11T04:02:58.466Z,1904.00
2023-05-11T04:03:58.467Z,1948.00
2023-05-11T04:04:58.418Z,1996.00
2023-05-11T04:05:58.425Z,2040.00
2023-05-11T04:06:58.466Z,2092.00
2023-05-11T04:07:58.464Z,2136.00
2023-05-11T04:08:58.471Z,2184.00
2023-05-11T04:09:58.504Z,2228.00
2023-05-11T04:10:58.506Z,2276.00
2023-05-11T04:11:58.553Z,2320.00
2023-05-11T04:12:58.545Z,2364.00
2023-05-11T04:13:58.554Z,2404.00
2023-05-11T04:14:58.572Z,2448.00
2023-05-11T04:15:58.614Z,2492.00
2023-05-11T04:16:58.598Z,2532.00
2023-05-11T04:17:58.685Z,2572.00
2023-05-11T04:18:58.678Z,2608.00
2023-05-11T04:19:58.668Z,2652.00
2023-05-11T04:20:58.660Z,2696.00
2023-05-11T04:21:58.676Z,2740.00
2023-05-11T04:22:58.697Z,2784.00
2023-05-11T04:23:58.709Z,2828.00
2023-05-11T04:24:58.728Z,2872.00
2023-05-11T04:25:58.740Z,2904.00
2023-05-11T04:26:58.758Z,2944.00
2023-05-11T04:27:58.777Z,2976.00
2023-05-11T04:28:58.789Z,3016.00
2023-05-11T04:29:58.811Z,3064.00
2023-05-11T04:30:58.829Z,3100.00
2023-05-11T04:31:58.912Z,3140.00
2023-05-11T04:32:58.919Z,3172.00
2023-05-11T04:33:58.869Z,3204.00
2023-05-11T04:34:58.881Z,3232.00
2023-05-11T04:35:58.962Z,3260.00
2023-05-11T04:36:58.916Z,3288.00
2023-05-11T04:37:58.933Z,3312.00
2023-05-11T04:38:58.950Z,3348.00
2023-05-11T04:39:58.962Z,3384.00
2023-05-11T04:40:58.979Z,3432.00
2023-05-11T04:41:58.996Z,3468.00
2023-05-11T04:42:59.012Z,3508.00
2023-05-11T04:43:59.032Z,3552.00
2023-05-11T04:44:59.045Z,3584.00
2023-05-11T04:45:59.057Z,3636.00
2023-05-11T04:46:59.154Z,3684.00
2023-05-11T04:47:59.134Z,3712.00
2023-05-11T04:48:59.109Z,3768.00
2023-05-11T04:49:59.140Z,3816.00
2023-05-11T04:50:59.140Z,3864.00
2023-05-11T04:51:59.155Z,3916.00
2023-05-11T04:52:59.180Z,3952.00
2023-05-11T04:53:59.187Z,3988.00
2023-05-11T04:54:59.212Z,4020.00
2023-05-11T04:55:59.219Z,4068.00
2023-05-11T04:56:59.251Z,4108.00
2023-05-11T04:57:59.252Z,4140.00
2023-05-11T04:58:59.265Z,4180.00
2023-05-11T04:59:59.350Z,4236.00
2023-05-11T05:00:59.475Z,4248.00
2023-05-11T05:01:59.316Z,4276.00
2023-05-11T05:02:59.382Z,4320.00
2023-05-11T05:03:59.398Z,4364.00
2023-05-11T05:04:59.365Z,4436.00
2023-05-11T05:05:59.380Z,4468.00
2023-05-11T05:06:59.400Z,4500.00
2023-05-11T05:07:59.417Z,4544.00
2023-05-11T05:08:59.434Z,4576.00
2023-05-11T05:09:59.446Z,4608.00
2023-05-11T05:10:59.467Z,4636.00
2023-05-11T05:11:59.495Z,4676.00
2023-05-11T05:12:59.516Z,4728.00
2023-05-11T05:13:59.516Z,4736.00
2023-05-11T05:14:59.552Z,4836.00
2023-05-11T05:15:59.568Z,4988.00
2023-05-11T05:16:59.682Z,5192.00
2023-05-11T05:17:59.603Z,5420.00
2023-05-11T05:18:59.662Z,5284.00
2023-05-11T05:19:59.621Z,5080.00
2023-05-11T05:20:59.630Z,5116.00
2023-05-11T05:21:59.651Z,5104.00
2023-05-11T05:22:59.664Z,5108.00
2023-05-11T05:23:59.691Z,5312.00
2023-05-11T05:24:59.699Z,6244.00
2023-05-11T05:25:59.716Z,7608.00
2023-05-11T05:26:59.732Z,6136.00
2023-05-11T05:27:59.757Z,6420.00
2023-05-11T05:28:59.765Z,8468.00
2023-05-11T05:29:59.784Z,11980.00
2023-05-11T05:30:59.859Z,11860.00
2023-05-11T05:31:59.814Z,9800.00
2023-05-11T05:32:59.894Z,12700.00
2023-05-11T05:33:59.862Z,14440.00
2023-05-11T05:34:59.880Z,15736.00
2023-05-11T05:35:59.887Z,12008.00
2023-05-11T05:36:59.912Z,9700.00
2023-05-11T05:37:59.921Z,9456.00
2023-05-11T05:38:59.936Z,7764.00
2023-05-11T05:39:59.952Z,8724.00
2023-05-11T05:40:59.973Z,9024.00
2023-05-11T05:41:59.987Z,7300.00
2023-05-11T05:43:00.012Z,7016.00
2023-05-11T05:44:00.029Z,7352.00
2023-05-11T05:45:00.039Z,6872.00
2023-05-11T05:46:00.080Z,6628.00
2023-05-11T05:47:00.078Z,6744.00
2023-05-11T05:48:00.149Z,7104.00
2023-05-11T05:49:00.130Z,7736.00
2023-05-11T05:50:00.150Z,7132.00
2023-05-11T05:51:00.203Z,6804.00
2023-05-11T05:52:00.167Z,6728.00
2023-05-11T05:53:00.188Z,7156.00
2023-05-11T05:54:00.208Z,8092.00
2023-05-11T05:55:00.227Z,9416.00
2023-05-11T05:56:00.235Z,10936.00
2023-05-11T05:57:00.253Z,11016.00
2023-05-11T05:58:00.273Z,10948.00
2023-05-11T05:59:00.289Z,13196.00
2023-05-11T06:00:00.307Z,11884.00
2023-05-11T06:01:00.335Z,10452.00
2023-05-11T06:02:00.345Z,13704.00
2023-05-11T06:03:00.523Z,13208.00
2023-05-11T06:04:00.619Z,8604.00
2023-05-11T06:05:00.431Z,8188.00
2023-05-11T06:06:00.415Z,8600.00
2023-05-11T06:07:00.434Z,9488.00
2023-05-11T06:08:10.086Z,9936.00
2023-05-11T06:09:00.475Z,9848.00
2023-05-11T06:10:00.488Z,10216.00
2023-05-11T06:11:00.504Z,10832.00
2023-05-11T06:12:00.531Z,10168.00
2023-05-11T06:13:00.551Z,9904.00
2023-05-11T06:14:00.570Z,10088.00
2023-05-11T06:15:00.594Z,11332.00
2023-05-11T06:16:00.641Z,18144.00
2023-05-11T06:17:00.624Z,18112.00
2023-05-11T06:18:00.682Z,11812.00
2023-05-11T06:19:00.713Z,9688.00
2023-05-11T06:20:00.672Z,20352.00
2023-05-11T06:21:00.692Z,27648.00
2023-05-11T06:22:00.712Z,26592.00
2023-05-11T06:23:00.744Z,34816.00
2023-05-11T06:24:00.752Z,43840.00
2023-05-11T06:25:00.778Z,41568.00
2023-05-11T06:26:00.789Z,42368.00
2023-05-11T06:27:00.822Z,44800.00
2023-05-11T06:28:00.837Z,43840.00
2023-05-11T06:29:00.853Z,42272.00
2023-05-11T06:30:00.871Z,43424.00
2023-05-11T06:31:00.919Z,43552.00
2023-05-11T06:32:01.066Z,43104.00
2023-05-11T06:33:00.994Z,42848.00
2023-05-11T06:34:00.956Z,43584.00
2023-05-11T06:35:00.972Z,43456.00
2023-05-11T06:36:01.939Z,43552.00
2023-05-11T06:37:01.048Z,44416.00
2023-05-11T06:38:01.041Z,47104.00
2023-05-11T06:39:01.069Z,47584.00
2023-05-11T06:40:01.093Z,46240.00
2023-05-11T06:41:01.117Z,45632.00
2023-05-11T06:42:04.175Z,45696.00
2023-05-11T06:43:01.158Z,47872.00
2023-05-11T06:44:01.177Z,46944.00
2023-05-11T06:45:01.258Z,46528.00
2023-05-11T06:46:01.284Z,46272.00
2023-05-11T06:47:01.250Z,45440.00
2023-05-11T06:48:01.295Z,45792.00
2023-05-11T06:49:01.295Z,46848.00
2023-05-11T06:50:01.322Z,45056.00
2023-05-11T06:51:01.345Z,42880.00
2023-05-11T06:52:01.366Z,37824.00
2023-05-11T06:53:01.393Z,35072.00
2023-05-11T06:54:01.441Z,34208.00
2023-05-11T06:55:01.444Z,34112.00
2023-05-11T06:56:01.466Z,34368.00
2023-05-11T06:57:01.504Z,33408.00
2023-05-11T06:58:01.516Z,32992.00
2023-05-11T06:59:01.538Z,33184.00
2023-05-11T07:00:01.578Z,32896.00
2023-05-11T07:01:01.621Z,33312.00
2023-05-11T07:02:01.611Z,33600.00
2023-05-11T07:03:01.664Z,33216.00
2023-05-11T07:04:01.661Z,33536.00
2023-05-11T07:05:01.721Z,33472.00
2023-05-11T07:06:01.715Z,33344.00
2023-05-11T07:07:01.743Z,34048.00
2023-05-11T07:08:01.765Z,34048.00
2023-05-11T07:09:01.792Z,34080.00
2023-05-11T07:10:01.828Z,34272.00
2023-05-11T07:11:01.887Z,34336.00
2023-05-11T07:12:01.865Z,34784.00
2023-05-11T07:13:01.892Z,34816.00
2023-05-11T07:14:01.920Z,36000.00
2023-05-11T07:15:01.952Z,36512.00
2023-05-11T07:16:01.980Z,35616.00
2023-05-11T07:17:02.056Z,35840.00
2023-05-11T07:18:02.082Z,36672.00
2023-05-11T07:19:02.134Z,36064.00
2023-05-11T07:20:02.107Z,35840.00
2023-05-11T07:21:02.097Z,35808.00
2023-05-11T07:22:02.146Z,36640.00
2023-05-11T07:23:02.155Z,36640.00
2023-05-11T07:24:02.184Z,37024.00
2023-05-11T07:25:02.215Z,37184.00
2023-05-11T07:26:02.236Z,37408.00
2023-05-11T07:27:02.269Z,37504.00
2023-05-11T07:28:02.292Z,38080.00
2023-05-11T07:29:02.320Z,37888.00
2023-05-11T07:30:02.355Z,39008.00
2023-05-11T07:31:02.412Z,39424.00
2023-05-11T07:32:02.404Z,39456.00
2023-05-11T07:33:02.472Z,39872.00
2023-05-11T07:34:02.450Z,40384.00
2023-05-11T07:35:02.550Z,40512.00
2023-05-11T07:36:02.507Z,40704.00
2023-05-11T07:37:02.536Z,40992.00
2023-05-11T07:38:02.565Z,41216.00
2023-05-11T07:39:02.588Z,41568.00
2023-05-11T07:40:02.628Z,41664.00
2023-05-11T07:41:03.493Z,42144.00
2023-05-11T07:42:02.671Z,42112.00
2023-05-11T07:43:02.704Z,42432.00
2023-05-11T07:44:02.733Z,42176.00
2023-05-11T07:45:02.757Z,42304.00
2023-05-11T07:46:02.806Z,42528.00
2023-05-11T07:47:02.816Z,42944.00
2023-05-11T07:48:02.883Z,43072.00
2023-05-11T07:49:14.517Z,43360.00
2023-05-11T07:50:02.905Z,43136.00
2023-05-11T07:51:02.928Z,43648.00
2023-05-11T07:52:02.951Z,43392.00
2023-05-11T07:53:02.983Z,43840.00
2023-05-11T07:54:03.025Z,44192.00
2023-05-11T07:55:03.035Z,44320.00
2023-05-11T07:56:03.071Z,44352.00
2023-05-11T07:57:03.101Z,45472.00
2023-05-11T07:58:03.123Z,45792.00
2023-05-11T07:59:03.433Z,45408.00
2023-05-11T08:00:03.181Z,45760.00
2023-05-11T08:01:03.213Z,46048.00
2023-05-11T08:02:03.270Z,46400.00
2023-05-11T08:03:03.320Z,46528.00
2023-05-11T08:04:03.303Z,47008.00
2023-05-11T08:05:03.324Z,47072.00
2023-05-11T08:06:03.477Z,47264.00
2023-05-11T08:07:03.392Z,47776.00
2023-05-11T08:08:03.412Z,47936.00
2023-05-11T08:09:03.452Z,47680.00
2023-05-11T08:10:03.469Z,48224.00
2023-05-11T08:11:03.499Z,48512.00
2023-05-11T08:12:03.526Z,48448.00
2023-05-11T08:13:03.550Z,48608.00
2023-05-11T08:14:03.589Z,48832.00
2023-05-11T08:15:03.626Z,48928.00
2023-05-11T08:16:03.667Z,49056.00
2023-05-11T08:17:03.672Z,49184.00
2023-05-11T08:18:03.788Z,49408.00
2023-05-11T08:19:03.821Z,49472.00
2023-05-11T08:20:03.760Z,50080.00
2023-05-11T08:21:03.795Z,50144.00
2023-05-11T08:22:03.821Z,50048.00
2023-05-11T08:23:03.849Z,48800.00
2023-05-11T08:24:03.881Z,39264.00
2023-05-11T08:25:03.908Z,20256.00
2023-05-11T08:26:03.933Z,10368.00
2023-05-11T08:27:03.969Z,17760.00
2023-05-11T08:28:03.995Z,28000.00
2023-05-11T08:29:04.022Z,32256.00
2023-05-11T08:30:04.051Z,33760.00
2023-05-11T08:31:04.079Z,35104.00
2023-05-11T08:32:04.122Z,36608.00
2023-05-11T08:34:05.131Z,39104.00
2023-05-11T08:35:04.354Z,40736.00
2023-05-11T08:36:04.220Z,42048.00
2023-05-11T08:37:04.258Z,43584.00
2023-05-11T08:38:04.275Z,44544.00
2023-05-11T08:39:04.304Z,45056.00
2023-05-11T08:40:04.345Z,44064.00
2023-05-11T08:41:04.359Z,30368.00
2023-05-11T08:42:04.399Z,14160.00
2023-05-11T08:43:04.422Z,17056.00
2023-05-11T08:44:04.443Z,36896.00
2023-05-11T08:45:04.479Z,49536.00
2023-05-11T08:46:04.568Z,51008.00
2023-05-11T08:47:18.922Z,51936.00
2023-05-11T08:48:04.605Z,51872.00
2023-05-11T08:49:04.581Z,52224.00
2023-05-11T08:50:04.606Z,51392.00
2023-05-11T08:51:04.633Z,51520.00
2023-05-11T08:52:06.017Z,51488.00
2023-05-11T08:53:04.688Z,51616.00
2023-05-11T08:54:04.724Z,51040.00
2023-05-11T08:55:04.744Z,51200.00
2023-05-11T08:56:04.771Z,51264.00
2023-05-11T08:57:04.820Z,51488.00
2023-05-11T08:58:04.826Z,50848.00
2023-05-11T08:59:04.857Z,50784.00
2023-05-11T09:00:04.883Z,49856.00
2023-05-11T09:01:04.942Z,48640.00
2023-05-11T09:02:04.948Z,46976.00
2023-05-11T09:03:05.131Z,45920.00
2023-05-11T09:04:04.990Z,45376.00
2023-05-11T09:05:05.151Z,44960.00
2023-05-11T09:06:05.049Z,43584.00
2023-05-11T09:07:05.082Z,44480.00
2023-05-11T09:08:05.104Z,44192.00
2023-05-11T09:09:05.133Z,43168.00
2023-05-11T09:10:05.163Z,43520.00
2023-05-11T09:11:05.191Z,42592.00
2023-05-11T09:12:05.216Z,43840.00
2023-05-11T09:13:05.249Z,43968.00
2023-05-11T09:14:05.273Z,43712.00
2023-05-11T09:15:05.301Z,42688.00
2023-05-11T09:16:09.252Z,40512.00
2023-05-11T09:17:05.509Z,40704.00
2023-05-11T09:18:05.588Z,40128.00
2023-05-11T09:19:05.495Z,39104.00
2023-05-11T09:20:05.602Z,36960.00
2023-05-11T09:21:05.477Z,31584.00
2023-05-11T09:22:05.512Z,19104.00
2023-05-11T14:32:48.712Z,22528.00
2023-05-11T14:33:48.676Z,21856.00
2023-05-11T14:34:48.796Z,20896.00
2023-05-11T14:35:48.735Z,20896.00
2023-05-11T14:36:48.757Z,20064.00
2023-05-11T14:37:48.791Z,20448.00
2023-05-11T14:38:48.814Z,20128.00
2023-05-11T14:39:48.846Z,19008.00
2023-05-11T14:40:50.476Z,18528.00
2023-05-11T14:41:48.903Z,18464.00
2023-05-11T14:42:49.001Z,18304.00
2023-05-11T14:43:48.968Z,18144.00
2023-05-11T14:44:48.992Z,17984.00
2023-05-11T14:45:49.056Z,17632.00
2023-05-11T14:46:49.105Z,17632.00
2023-05-11T14:47:49.131Z,17056.00
2023-05-11T14:48:49.119Z,16512.00
2023-05-11T14:49:49.154Z,17472.00
2023-05-11T14:50:49.170Z,17600.00
2023-05-11T14:51:49.199Z,17408.00
2023-05-11T14:52:49.220Z,17472.00
2023-05-11T14:53:49.252Z,17056.00
2023-05-11T14:54:49.291Z,17088.00
2023-05-11T14:55:49.340Z,17280.00
2023-05-11T14:56:49.338Z,17280.00
2023-05-11T14:57:49.370Z,16672.00
2023-05-11T14:58:49.393Z,16064.00
2023-05-11T14:59:58.904Z,14152.00
2023-05-11T15:00:49.460Z,13732.00
2023-05-11T15:01:49.622Z,14124.00
2023-05-11T15:02:49.546Z,13804.00
2023-05-11T15:03:49.569Z,13416.00
2023-05-11T15:04:49.573Z,13252.00
2023-05-11T15:05:49.614Z,12948.00
2023-05-11T15:06:49.640Z,12404.00
2023-05-11T15:07:49.658Z,12064.00
2023-05-11T15:08:49.685Z,12016.00
2023-05-11T15:09:49.720Z,12016.00
2023-05-11T15:10:49.747Z,11988.00
2023-05-11T15:11:49.774Z,11892.00
2023-05-11T15:12:49.793Z,11908.00
2023-05-11T15:13:49.825Z,11624.00
2023-05-11T15:14:49.860Z,11488.00
2023-05-11T15:15:49.990Z,11304.00
2023-05-11T15:16:49.997Z,11156.00
2023-05-11T15:17:49.964Z,11152.00
2023-05-11T15:18:50.028Z,10612.00
2023-05-11T15:19:49.987Z,10392.00
2023-05-11T15:20:50.018Z,9612.00
2023-05-11T15:21:50.039Z,9336.00
2023-05-11T15:22:50.067Z,9172.00
2023-05-11T15:23:50.103Z,8960.00
2023-05-11T15:24:50.123Z,8588.00
2023-05-11T15:25:50.153Z,8328.00
2023-05-11T15:26:50.174Z,8272.00
2023-05-11T15:27:50.216Z,8436.00
2023-05-11T15:28:50.228Z,8576.00
2023-05-11T15:29:50.458Z,8532.00
2023-05-11T15:30:50.282Z,8616.00
2023-05-11T15:31:50.346Z,8524.00
2023-05-11T15:32:50.370Z,8564.00
2023-05-11T15:33:50.375Z,8464.00
2023-05-11T15:34:59.309Z,8480.00
2023-05-11T15:35:50.416Z,8908.00
2023-05-11T15:36:50.440Z,8944.00
2023-05-11T15:37:50.463Z,9232.00
2023-05-11T15:38:50.496Z,8672.00
2023-05-11T15:39:50.522Z,8392.00
2023-05-11T15:40:50.540Z,8536.00
2023-05-11T15:41:50.564Z,7848.00
2023-05-11T15:42:50.591Z,8088.00
2023-05-11T15:43:50.621Z,7952.00
2023-05-11T15:44:50.642Z,7976.00
2023-05-11T15:45:50.707Z,7868.00
2023-05-11T15:46:50.695Z,7740.00
2023-05-11T15:47:50.746Z,7576.00
2023-05-11T15:48:50.756Z,8576.00
2023-05-11T15:49:50.775Z,8924.00
2023-05-11T15:50:50.798Z,8072.00
2023-05-11T15:51:50.820Z,7508.00
2023-05-11T15:52:50.843Z,7028.00
2023-05-11T15:53:50.872Z,7144.00
2023-05-11T15:54:50.907Z,6964.00
2023-05-11T15:55:50.923Z,6744.00
2023-05-11T15:56:50.951Z,7108.00
2023-05-11T15:57:51.176Z,6956.00
2023-05-11T15:58:50.998Z,7092.00
2023-05-11T15:59:51.145Z,7712.00
2023-05-11T16:00:51.087Z,7468.00
2023-05-11T16:01:51.197Z,7392.00
2023-05-11T16:02:51.267Z,7832.00
2023-05-11T16:03:51.210Z,7652.00
2023-05-11T16:04:51.152Z,7572.00
2023-05-11T16:05:51.171Z,7916.00
2023-05-11T16:06:51.196Z,7320.00
2023-05-11T16:07:51.224Z,7080.00
2023-05-11T16:08:51.242Z,6932.00
2023-05-11T16:09:51.296Z,6824.00
2023-05-11T16:10:51.326Z,6496.00
2023-05-11T16:11:51.333Z,6876.00
2023-05-11T16:12:51.349Z,6212.00
2023-05-11T16:13:51.420Z,6260.00
2023-05-11T16:14:51.403Z,6444.00
2023-05-11T16:15:51.423Z,6440.00
2023-05-11T16:16:51.477Z,6516.00
2023-05-11T16:17:51.495Z,6660.00
2023-05-11T16:18:51.528Z,6736.00
2023-05-11T16:19:51.518Z,6772.00
2023-05-11T16:20:51.558Z,6752.00
2023-05-11T16:21:51.573Z,6784.00
2023-05-11T16:22:51.593Z,6884.00
2023-05-11T16:23:51.628Z,7072.00
2023-05-11T16:24:51.645Z,7104.00
2023-05-11T16:25:51.667Z,7116.00
2023-05-11T16:26:51.692Z,7148.00
2023-05-11T16:27:51.750Z,7180.00
2023-05-11T16:28:51.744Z,7180.00
2023-05-11T16:29:51.768Z,7124.00
2023-05-11T16:30:51.790Z,7068.00
2023-05-11T16:31:51.938Z,7056.00
2023-05-11T16:32:51.903Z,7112.00
2023-05-11T16:33:51.868Z,7188.00
2023-05-11T16:34:51.914Z,7220.00
2023-05-11T16:35:51.913Z,7212.00
2023-05-11T16:36:51.942Z,7252.00
2023-05-11T16:37:51.964Z,7280.00
2023-05-11T16:38:51.988Z,7288.00
2023-05-11T16:39:52.013Z,7224.00
2023-05-11T16:40:52.037Z,7156.00
2023-05-11T16:41:52.062Z,7124.00
2023-05-11T16:42:52.084Z,7136.00
2023-05-11T16:43:52.106Z,7180.00
2023-05-11T16:44:52.136Z,7192.00
2023-05-11T16:45:52.158Z,7136.00
2023-05-11T16:46:52.264Z,7060.00
2023-05-11T16:47:52.300Z,7016.00
2023-05-11T16:48:52.233Z,6964.00
2023-05-11T16:49:52.259Z,6916.00
2023-05-11T16:50:52.280Z,6824.00
2023-05-11T16:51:52.305Z,6716.00
2023-05-11T16:52:52.326Z,6600.00
2023-05-11T16:53:52.360Z,6508.00
2023-05-11T16:54:52.380Z,6420.00
2023-05-11T16:55:52.406Z,6288.00
2023-05-11T16:56:52.420Z,6188.00
2023-05-11T16:57:52.450Z,6152.00
2023-05-11T16:58:52.471Z,6140.00
2023-05-11T16:59:52.494Z,6108.00
2023-05-11T17:00:52.516Z,6036.00
2023-05-11T17:01:52.606Z,5932.00
2023-05-11T17:02:52.634Z,5804.00
2023-05-11T17:03:52.710Z,5680.00
2023-05-11T17:04:52.615Z,5572.00
2023-05-11T17:05:52.637Z,5480.00
2023-05-11T17:06:52.671Z,5384.00
2023-05-11T17:07:52.687Z,5320.00
2023-05-11T17:08:52.709Z,5268.00
2023-05-11T17:09:52.735Z,5212.00
2023-05-11T17:10:52.770Z,5176.00
2023-05-11T17:11:52.779Z,5148.00
2023-05-11T17:12:52.804Z,5104.00
2023-05-11T17:13:52.829Z,5056.00
2023-05-11T17:14:52.869Z,5024.00
2023-05-11T17:15:52.903Z,5008.00
2023-05-11T17:16:52.954Z,4980.00
2023-05-11T17:17:52.958Z,4904.00
2023-05-11T17:18:52.980Z,4832.00
2023-05-11T17:19:52.970Z,4784.00
2023-05-11T17:20:52.992Z,4768.00
2023-05-11T17:21:53.025Z,4752.00
2023-05-11T17:22:53.040Z,4712.00
2023-05-11T17:23:53.064Z,4640.00
2023-05-11T17:24:53.116Z,4560.00
2023-05-11T17:25:53.110Z,4500.00
2023-05-11T17:26:53.135Z,4436.00